createdAt,value
2023-05-03T00:01:56.604Z,46.17
2023-05-03T00:04:22.991Z,46.07
2023-05-03T00:06:49.464Z,45.87
2023-05-03T00:09:15.921Z,45.86
2023-05-03T00:11:42.280Z,45.86
2023-05-03T00:14:08.761Z,45.97
2023-05-03T00:16:35.156Z,45.90
2023-05-03T00:19:01.516Z,46.02
2023-05-03T00:21:28.051Z,46.17
2023-05-03T00:23:54.506Z,46.18
2023-05-03T00:26:21.036Z,46.13
2023-05-03T00:28:47.508Z,46.23
2023-05-03T00:31:14.032Z,46.29
2023-05-03T00:33:40.408Z,46.30
2023-05-03T00:36:06.891Z,46.52
2023-05-03T00:38:33.325Z,46.57
2023-05-03T00:40:59.788Z,46.69
2023-05-03T00:43:26.202Z,46.79
2023-05-03T00:45:57.146Z,46.87
2023-05-03T00:48:19.095Z,47.06
2023-05-03T00:50:45.538Z,47.24
2023-05-03T00:53:12.069Z,47.21
2023-05-03T00:55:38.581Z,47.29
2023-05-03T00:58:04.948Z,47.21
2023-05-03T01:00:31.339Z,47.36
2023-05-03T01:02:57.878Z,47.48
2023-05-03T01:05:24.238Z,47.76
2023-05-03T01:07:50.691Z,47.66
2023-05-03T01:10:17.315Z,47.87
2023-05-03T01:12:43.687Z,47.96
2023-05-03T01:15:10.185Z,48.09
2023-05-03T01:17:36.710Z,48.24
2023-05-03T01:20:03.294Z,48.35
2023-05-03T01:22:32.132Z,48.59
2023-05-03T01:24:55.912Z,48.62
2023-05-03T01:27:22.421Z,48.79
2023-05-03T01:29:48.883Z,49.04
2023-05-03T01:32:15.336Z,49.00
2023-05-03T01:34:41.817Z,49.33
2023-05-03T01:37:08.261Z,49.02
2023-05-03T01:39:34.629Z,49.25
2023-05-03T01:42:01.256Z,49.54
2023-05-03T01:44:27.639Z,49.39
2023-05-03T01:46:54.045Z,49.72
2023-05-03T01:49:20.491Z,49.86
2023-05-03T01:51:46.984Z,49.87
2023-05-03T01:54:13.510Z,50.01
2023-05-03T01:56:40.182Z,50.29
2023-05-03T01:59:06.564Z,50.36
2023-05-03T02:01:33.109Z,50.52
2023-05-03T02:03:59.491Z,50.57
2023-05-03T02:06:25.899Z,50.73
2023-05-03T02:08:52.384Z,51.04
2023-05-03T02:11:18.846Z,50.93
2023-05-03T02:13:45.378Z,51.04
2023-05-03T02:16:11.904Z,51.35
2023-05-03T02:18:38.410Z,51.38
2023-05-03T02:21:04.809Z,51.51
2023-05-03T02:23:31.467Z,51.74
2023-05-03T02:25:58.024Z,51.77
2023-05-03T02:28:24.492Z,52.03
2023-05-03T02:30:50.967Z,52.47
2023-05-03T02:33:17.375Z,52.56
2023-05-03T02:35:43.782Z,52.44
2023-05-03T02:38:10.144Z,52.10
2023-05-03T02:40:36.650Z,52.47
2023-05-03T02:43:03.046Z,52.39
2023-05-03T02:45:29.489Z,52.19
2023-05-03T02:47:56.035Z,52.31
2023-05-03T02:50:22.491Z,52.12
2023-05-03T02:52:48.903Z,52.33
2023-05-03T02:55:15.519Z,52.34
2023-05-03T02:57:42.706Z,52.31
2023-05-03T03:00:08.310Z,52.50
2023-05-03T03:02:34.837Z,52.89
2023-05-03T03:05:03.736Z,53.25
2023-05-03T03:07:27.690Z,53.39
2023-05-03T03:09:54.153Z,53.70
2023-05-03T03:12:20.504Z,53.70
2023-05-03T03:14:47.027Z,53.79
2023-05-03T03:17:13.582Z,53.78
2023-05-03T03:19:39.916Z,54.12
2023-05-03T03:22:06.329Z,54.42
2023-05-03T03:24:33.031Z,54.55
2023-05-03T03:26:59.559Z,54.49
2023-05-03T03:29:25.906Z,54.59
2023-05-03T03:31:52.413Z,54.75
2023-05-03T03:34:18.769Z,54.99
2023-05-03T03:36:45.303Z,54.77
2023-05-03T03:39:11.714Z,54.35
2023-05-03T03:41:38.186Z,54.69
2023-05-03T03:44:04.628Z,54.78
2023-05-03T03:46:31.161Z,55.22
2023-05-03T03:48:57.567Z,55.29
2023-05-03T03:51:23.990Z,55.37
2023-05-03T03:53:50.496Z,55.59
2023-05-03T03:56:16.985Z,55.21
2023-05-03T03:58:43.352Z,55.13
2023-05-03T04:01:09.885Z,54.27
2023-05-03T04:03:36.251Z,54.03
2023-05-03T04:06:04.595Z,54.20
2023-05-03T04:08:29.323Z,54.11
2023-05-03T04:10:55.761Z,53.87
2023-05-03T04:13:22.247Z,53.78
2023-05-03T04:15:48.598Z,53.71
2023-05-03T04:18:15.143Z,53.82
2023-05-03T04:20:41.606Z,53.69
2023-05-03T04:23:08.100Z,53.74
2023-05-03T04:25:34.591Z,53.38
2023-05-03T04:28:00.955Z,53.35
2023-05-03T04:30:27.384Z,53.42
2023-05-03T04:32:53.835Z,53.99
2023-05-03T04:35:20.207Z,54.36
2023-05-03T04:37:46.582Z,54.71
2023-05-03T04:40:13.057Z,55.05
2023-05-03T04:42:39.578Z,56.84
2023-05-03T04:45:06.315Z,57.75
2023-05-03T04:47:32.808Z,58.54
2023-05-03T04:49:59.448Z,58.45
2023-05-03T04:52:25.848Z,58.71
2023-05-03T04:54:52.349Z,59.46
2023-05-03T04:57:18.927Z,60.11
2023-05-03T04:59:47.095Z,59.48
2023-05-03T05:02:13.459Z,60.11
2023-05-03T05:04:39.903Z,60.35
2023-05-03T05:07:06.394Z,61.63
2023-05-03T05:09:32.811Z,63.44
2023-05-03T05:11:59.401Z,64.06
2023-05-03T05:14:25.898Z,64.36
2023-05-03T05:16:52.381Z,65.92
2023-05-03T05:19:18.832Z,66.56
2023-05-03T05:21:45.245Z,67.59
2023-05-03T05:24:11.710Z,68.62
2023-05-03T05:26:38.169Z,69.79
2023-05-03T05:29:04.581Z,70.67
2023-05-03T05:31:31.176Z,71.06
2023-05-03T05:33:57.570Z,71.22
2023-05-03T05:36:24.078Z,69.29
2023-05-03T05:38:50.524Z,69.00
2023-05-03T05:41:17.109Z,69.12
2023-05-03T05:43:43.534Z,68.72
2023-05-03T05:46:10.004Z,67.54
2023-05-03T05:48:36.501Z,67.02
2023-05-03T05:51:02.989Z,66.25
2023-05-03T05:53:29.733Z,65.81
2023-05-03T05:55:56.085Z,64.66
2023-05-03T05:58:22.526Z,64.92
2023-05-03T06:00:57.813Z,65.09
2023-05-03T06:03:24.419Z,62.83
2023-05-03T06:05:50.806Z,64.03
2023-05-03T06:08:17.289Z,63.87
2023-05-03T06:10:43.788Z,64.06
2023-05-03T06:13:10.375Z,64.29
2023-05-03T06:15:36.754Z,65.12
2023-05-03T06:18:05.842Z,65.69
2023-05-03T06:20:29.959Z,65.60
2023-05-03T06:22:56.490Z,65.66
2023-05-03T06:25:22.918Z,64.93
2023-05-03T06:27:49.454Z,66.26
2023-05-03T06:30:16.022Z,64.64
2023-05-03T06:32:42.488Z,66.00
2023-05-03T06:35:08.995Z,65.65
2023-05-03T06:37:35.500Z,65.44
2023-05-03T06:40:02.128Z,65.26
2023-05-03T06:42:28.498Z,64.55
2023-05-03T06:44:55.220Z,65.43
2023-05-03T06:47:22.587Z,65.57
2023-05-03T06:49:49.128Z,63.19
2023-05-03T06:52:15.399Z,63.06
2023-05-03T06:54:42.402Z,62.45
2023-05-03T06:57:08.891Z,60.74
2023-05-03T06:59:35.351Z,60.72
2023-05-03T07:02:01.899Z,61.98
2023-05-03T07:04:28.351Z,62.25
2023-05-03T07:06:56.659Z,61.49
2023-05-03T07:09:28.697Z,61.52
2023-05-03T07:11:47.920Z,62.56
2023-05-03T07:14:14.491Z,62.40
2023-05-03T07:16:40.919Z,62.17
2023-05-03T07:19:07.660Z,62.44
2023-05-03T07:21:34.084Z,62.95
2023-05-03T07:24:00.491Z,62.48
2023-05-03T07:26:26.901Z,62.93
2023-05-03T07:28:53.335Z,63.08
2023-05-03T07:31:19.766Z,63.39
2023-05-03T07:33:46.368Z,64.03
2023-05-03T07:36:12.619Z,64.29
2023-05-03T07:38:39.073Z,64.03
2023-05-03T07:41:05.599Z,64.01
2023-05-03T07:43:32.076Z,64.61
2023-05-03T07:45:58.803Z,64.36
2023-05-03T07:48:24.954Z,64.76
2023-05-03T07:50:51.452Z,64.82
2023-05-03T07:53:17.931Z,65.30
2023-05-03T07:55:44.354Z,65.22
2023-05-03T07:58:10.782Z,65.03
2023-05-03T08:00:37.414Z,65.12
2023-05-03T08:03:04.005Z,64.51
2023-05-03T08:05:30.462Z,64.39
2023-05-03T08:07:56.881Z,65.19
2023-05-03T08:10:23.575Z,65.49
2023-05-03T08:12:49.937Z,65.71
2023-05-03T08:15:16.279Z,65.49
2023-05-03T08:17:42.892Z,64.95
2023-05-03T08:20:10.183Z,63.94
2023-05-03T08:22:36.698Z,62.30
2023-05-03T08:25:03.255Z,61.22
2023-05-03T08:27:29.809Z,60.49
2023-05-03T08:29:56.430Z,58.60
2023-05-03T08:32:22.833Z,57.02
2023-05-03T08:34:49.358Z,55.91
2023-05-03T08:37:15.824Z,54.55
2023-05-03T08:39:42.261Z,54.60
2023-05-03T08:42:08.679Z,55.22
2023-05-03T08:44:35.217Z,53.74
2023-05-03T08:47:01.859Z,50.91
2023-05-03T08:49:28.128Z,49.96
2023-05-03T08:51:54.909Z,48.64
2023-05-03T08:54:21.322Z,48.40
2023-05-03T08:56:47.768Z,46.85
2023-05-03T08:59:14.238Z,46.72
2023-05-03T09:01:40.776Z,47.12
2023-05-03T09:04:09.489Z,48.94
2023-05-03T09:06:33.789Z,48.77
2023-05-03T09:09:00.184Z,48.64
2023-05-03T09:11:26.594Z,48.83
2023-05-03T09:13:53.079Z,48.54
2023-05-03T09:16:19.725Z,49.41
2023-05-03T09:18:46.122Z,49.83
2023-05-03T09:21:12.500Z,49.42
2023-05-03T09:23:39.081Z,48.05
2023-05-03T09:26:05.550Z,47.64
2023-05-03T09:28:31.913Z,46.72
2023-05-03T09:30:58.442Z,45.32
2023-05-03T09:33:24.912Z,44.85
2023-05-03T09:35:51.331Z,45.08
2023-05-03T09:38:17.794Z,43.12
2023-05-03T09:40:44.209Z,43.81
2023-05-03T09:43:10.674Z,45.55
2023-05-03T09:45:37.141Z,47.58
2023-05-03T09:48:03.580Z,47.79
2023-05-03T09:50:29.923Z,48.54
2023-05-03T09:52:56.824Z,48.36
2023-05-03T09:55:25.293Z,46.16
2023-05-03T09:57:51.701Z,46.54
2023-05-03T10:00:19.224Z,45.13
2023-05-03T10:02:45.926Z,44.05
2023-05-03T10:05:12.308Z,42.86
2023-05-03T10:07:38.769Z,41.33
2023-05-03T10:10:05.154Z,40.78
2023-05-03T10:12:31.574Z,43.45
2023-05-03T10:14:58.030Z,44.53
2023-05-03T10:17:35.331Z,44.84
2023-05-03T10:19:50.834Z,45.97
2023-05-03T10:22:17.256Z,43.60
2023-05-03T10:24:43.670Z,40.67
2023-05-03T10:27:10.118Z,40.37
2023-05-03T10:29:36.525Z,43.42
2023-05-03T10:32:02.909Z,43.37
2023-05-03T10:34:29.301Z,45.91
2023-05-03T10:36:55.878Z,46.55
2023-05-03T10:39:22.302Z,46.66
2023-05-03T10:41:48.629Z,46.29
2023-05-03T10:44:15.081Z,47.70
2023-05-03T10:46:41.573Z,49.17
2023-05-03T10:49:08.004Z,48.95
2023-05-03T10:51:34.450Z,49.13
2023-05-03T10:54:00.963Z,50.30
2023-05-03T10:56:27.362Z,50.42
2023-05-03T10:58:53.931Z,51.00
2023-05-03T11:01:20.456Z,50.56
2023-05-03T11:03:46.772Z,51.22
2023-05-03T11:06:13.268Z,51.21
2023-05-03T11:08:39.643Z,51.20
2023-05-03T11:11:06.200Z,51.42
2023-05-03T11:13:32.643Z,49.63
2023-05-03T11:15:59.045Z,50.71
2023-05-03T11:18:25.412Z,51.76
2023-05-03T11:20:51.846Z,51.79
2023-05-03T11:23:18.209Z,52.33
2023-05-03T11:25:44.678Z,51.80
2023-05-03T11:28:11.098Z,52.00
2023-05-03T11:30:37.646Z,52.07
2023-05-03T11:33:04.082Z,52.36
2023-05-03T11:35:30.611Z,52.20
2023-05-03T11:37:57.049Z,52.69
2023-05-03T11:40:23.423Z,51.18
2023-05-03T11:42:50.116Z,50.11
2023-05-03T11:45:21.459Z,51.96
2023-05-03T11:47:45.489Z,51.48
2023-05-03T11:50:12.051Z,51.76
2023-05-03T11:52:38.415Z,51.48
2023-05-03T11:55:05.233Z,51.99
2023-05-03T11:57:31.308Z,52.46
2023-05-03T11:59:57.698Z,52.54
2023-05-03T12:02:24.281Z,53.14
2023-05-03T12:04:51.054Z,52.28
2023-05-03T12:07:19.502Z,49.67
2023-05-03T12:09:45.276Z,49.39
2023-05-03T12:12:11.398Z,50.95
2023-05-03T12:14:36.556Z,53.40
2023-05-03T12:17:02.764Z,53.62
2023-05-03T12:19:32.216Z,53.91
2023-05-03T12:22:18.027Z,54.84
2023-05-03T12:24:24.304Z,54.82
2023-05-03T12:26:48.933Z,55.27
2023-05-03T12:29:15.194Z,56.04
2023-05-03T12:31:43.907Z,57.16
2023-05-03T12:34:31.719Z,58.24
2023-05-03T12:36:37.055Z,58.70
2023-05-03T12:39:02.061Z,60.34
2023-05-03T12:42:00.862Z,60.71
2023-05-03T12:43:53.757Z,61.08
2023-05-03T12:46:33.831Z,60.98
2023-05-03T12:48:46.942Z,61.01
2023-05-03T12:53:39.557Z,60.31
2023-05-03T12:56:06.788Z,60.50
2023-05-03T12:58:56.624Z,61.18
2023-05-03T13:03:32.802Z,64.26
2023-05-03T13:05:51.991Z,65.14
2023-05-03T13:08:21.370Z,66.20
2023-05-03T13:10:44.714Z,67.74
2023-05-03T13:13:11.857Z,68.42
2023-05-03T13:15:38.267Z,68.55
2023-05-03T13:18:04.793Z,69.14
2023-05-03T13:20:33.549Z,69.10
2023-05-03T13:22:59.932Z,68.89
2023-05-03T13:25:26.395Z,69.36
2023-05-03T13:27:52.925Z,70.83
2023-05-03T13:30:19.389Z,71.96
2023-05-03T13:32:45.861Z,74.15
2023-05-03T13:35:12.266Z,76.12
2023-05-03T13:37:38.710Z,78.71
2023-05-03T13:40:05.581Z,80.91
2023-05-03T13:42:31.583Z,82.33
2023-05-03T13:44:58.098Z,85.26
2023-05-03T13:47:24.788Z,86.18
2023-05-03T13:49:50.947Z,88.49
2023-05-03T13:52:17.688Z,91.43
2023-05-03T13:54:44.241Z,93.75
2023-05-03T13:57:10.648Z,97.04
2023-05-03T13:59:37.094Z,100.00
2023-05-03T14:02:03.636Z,100.00
2023-05-03T14:04:30.009Z,100.00
2023-05-03T14:06:56.456Z,100.00
2023-05-03T14:09:22.909Z,100.00
2023-05-03T14:11:50.441Z,100.00
2023-05-03T14:14:16.960Z,100.00
2023-05-03T14:16:43.380Z,100.00
2023-05-03T14:19:09.755Z,100.00
2023-05-03T14:21:36.134Z,100.00
2023-05-03T14:24:02.557Z,100.00
2023-05-03T14:26:28.966Z,100.00
2023-05-03T14:28:55.481Z,100.00
2023-05-03T14:31:22.023Z,100.00
2023-05-03T14:33:48.418Z,100.00
2023-05-03T14:36:14.788Z,100.00
2023-05-03T14:38:41.465Z,100.00
2023-05-03T14:41:07.904Z,100.00
2023-05-03T14:43:34.377Z,100.00
2023-05-03T14:46:00.806Z,100.00
2023-05-03T14:48:27.199Z,100.00
2023-05-03T14:50:53.564Z,100.00
2023-05-03T14:53:20.115Z,100.00
2023-05-03T14:55:46.496Z,100.00
2023-05-03T14:58:12.956Z,100.00
2023-05-03T15:00:39.437Z,100.00
2023-05-03T15:03:05.971Z,100.00
2023-05-03T15:05:32.299Z,100.00
2023-05-03T15:07:58.719Z,100.00
2023-05-03T15:10:25.163Z,100.00
2023-05-03T15:12:51.600Z,100.00
2023-05-03T15:15:17.936Z,100.00
2023-05-03T15:17:44.372Z,100.00
2023-05-03T15:20:10.766Z,100.00
2023-05-03T15:22:37.178Z,100.00
2023-05-03T15:25:03.644Z,100.00
2023-05-03T15:27:30.114Z,100.00
2023-05-03T15:29:56.463Z,100.00
2023-05-03T15:32:22.944Z,100.00
2023-05-03T15:34:49.332Z,100.00
2023-05-03T15:37:15.770Z,100.00
2023-05-03T15:39:42.201Z,100.00
2023-05-03T15:42:08.627Z,100.00
2023-05-03T15:44:35.050Z,100.00
2023-05-03T15:47:01.473Z,100.00
2023-05-03T15:49:27.852Z,100.00
2023-05-03T15:51:54.243Z,100.00
2023-05-03T15:54:20.910Z,100.00
2023-05-03T15:56:47.322Z,100.00
2023-05-03T15:59:13.817Z,100.00
2023-05-03T16:01:40.329Z,100.00
2023-05-03T16:04:06.670Z,100.00
2023-05-03T16:06:33.087Z,100.00
2023-05-03T16:08:59.462Z,100.00
2023-05-03T16:11:25.924Z,100.00
2023-05-03T16:13:52.491Z,100.00
2023-05-03T16:16:18.953Z,100.00
2023-05-03T16:18:45.847Z,100.00
2023-05-03T16:21:12.247Z,100.00
2023-05-03T16:23:38.768Z,100.00
2023-05-03T16:26:05.190Z,100.00
2023-05-03T16:28:31.648Z,100.00
2023-05-03T16:30:58.155Z,100.00
2023-05-03T16:33:24.514Z,100.00
2023-05-03T16:35:50.979Z,100.00
2023-05-03T16:38:17.430Z,100.00
2023-05-03T16:40:43.858Z,100.00
2023-05-03T16:43:10.261Z,100.00
2023-05-03T16:45:36.729Z,100.00
2023-05-03T16:48:06.037Z,100.00
2023-05-03T16:50:29.453Z,100.00
2023-05-03T16:52:55.952Z,100.00
2023-05-03T16:55:22.486Z,100.00
2023-05-03T16:57:48.906Z,100.00
2023-05-03T17:00:15.398Z,100.00
2023-05-03T17:02:41.833Z,100.00
2023-05-03T17:05:08.191Z,100.00
2023-05-03T17:07:34.607Z,100.00
2023-05-03T17:10:01.133Z,100.00
2023-05-03T17:12:27.498Z,100.00
2023-05-03T17:14:54.005Z,100.00
2023-05-03T17:17:20.445Z,100.00
2023-05-03T17:19:46.898Z,100.00
2023-05-03T17:22:13.307Z,100.00
2023-05-03T17:24:39.683Z,100.00
2023-05-03T17:27:06.085Z,100.00
2023-05-03T17:29:32.699Z,100.00
2023-05-03T17:31:59.143Z,100.00
2023-05-03T17:34:25.820Z,100.00
2023-05-03T17:36:52.296Z,100.00
2023-05-03T17:39:18.660Z,100.00
2023-05-03T17:41:45.169Z,100.00
2023-05-03T17:44:11.595Z,100.00
2023-05-03T17:46:38.055Z,100.00
2023-05-03T17:49:04.439Z,100.00
2023-05-03T17:51:31.051Z,100.00
2023-05-03T17:53:57.461Z,100.00
2023-05-03T17:56:23.801Z,100.00
2023-05-03T17:58:50.385Z,100.00
2023-05-03T18:01:19.013Z,100.00
2023-05-03T18:03:45.406Z,100.00
2023-05-03T18:06:11.848Z,100.00
2023-05-03T18:08:38.276Z,100.00
2023-05-03T18:11:04.747Z,100.00
2023-05-03T18:13:31.174Z,100.00
2023-05-03T18:15:57.613Z,100.00
2023-05-03T18:18:23.953Z,100.00
2023-05-03T18:20:50.613Z,100.00
2023-05-03T18:23:17.105Z,100.00
2023-05-03T18:25:43.598Z,100.00
2023-05-03T18:28:11.550Z,100.00
2023-05-03T18:30:36.732Z,100.00
2023-05-03T18:33:04.397Z,100.00
2023-05-03T18:35:30.769Z,100.00
2023-05-03T18:37:57.581Z,100.00
2023-05-03T18:40:24.043Z,100.00
2023-05-03T18:42:50.541Z,100.00
2023-05-03T18:45:17.118Z,100.00
2023-05-03T18:47:43.557Z,100.00
2023-05-03T18:50:10.190Z,100.00
2023-05-03T18:52:36.663Z,100.00
2023-05-03T18:55:03.112Z,100.00
2023-05-03T18:57:29.766Z,100.00
2023-05-03T19:00:00.760Z,100.00
2023-05-03T19:02:22.489Z,100.00
2023-05-03T19:04:49.957Z,100.00
2023-05-03T19:07:16.455Z,100.00
2023-05-03T19:09:42.826Z,100.00
2023-05-03T19:12:09.252Z,100.00
2023-05-03T19:14:35.715Z,100.00
2023-05-03T19:17:02.247Z,100.00
2023-05-03T19:19:29.176Z,100.00
2023-05-03T19:21:55.560Z,100.00
2023-05-03T19:24:21.980Z,100.00
2023-05-03T19:26:50.756Z,100.00
2023-05-03T19:29:17.219Z,100.00
2023-05-03T19:31:43.927Z,100.00
2023-05-03T19:34:10.684Z,100.00
2023-05-03T19:36:36.902Z,100.00
2023-05-03T19:39:03.436Z,100.00
2023-05-03T19:41:30.145Z,100.00
2023-05-03T19:43:56.611Z,100.00
2023-05-03T19:46:23.194Z,100.00
2023-05-03T19:48:49.549Z,100.00
2023-05-03T19:51:15.997Z,100.00
2023-05-03T19:53:42.550Z,100.00
2023-05-03T19:56:09.104Z,100.00
2023-05-03T19:58:35.687Z,100.00
2023-05-03T20:01:02.564Z,100.00
2023-05-03T20:03:29.249Z,100.00
2023-05-03T20:05:55.775Z,100.00
2023-05-03T20:08:22.480Z,100.00
2023-05-03T20:10:49.021Z,100.00
2023-05-03T20:13:19.004Z,100.00
2023-05-03T20:15:45.311Z,100.00
2023-05-03T20:18:11.813Z,100.00
2023-05-03T20:20:38.348Z,100.00
2023-05-03T20:23:04.823Z,100.00
2023-05-03T20:25:31.343Z,100.00
2023-05-03T20:28:00.524Z,100.00
2023-05-03T20:30:24.481Z,100.00
2023-05-03T20:32:51.007Z,100.00
2023-05-03T20:35:17.542Z,100.00
2023-05-03T20:37:44.089Z,100.00
2023-05-03T20:40:10.740Z,100.00
2023-05-03T20:42:37.281Z,100.00
2023-05-03T20:45:03.716Z,100.00
2023-05-03T20:47:30.445Z,100.00
2023-05-03T20:49:56.940Z,100.00
2023-05-03T20:52:23.515Z,100.00
2023-05-03T20:54:50.021Z,100.00
2023-05-03T20:57:16.769Z,100.00
2023-05-03T20:59:43.282Z,100.00
2023-05-03T21:02:09.999Z,100.00
2023-05-03T21:04:36.282Z,100.00
2023-05-03T21:07:02.932Z,100.00
2023-05-03T21:09:29.359Z,100.00
2023-05-03T21:11:55.963Z,100.00
2023-05-03T21:14:22.725Z,100.00
2023-05-03T21:16:49.806Z,100.00
2023-05-03T21:19:16.263Z,100.00
2023-05-03T21:21:42.721Z,100.00
2023-05-03T21:24:09.220Z,100.00
2023-05-03T21:26:35.730Z,100.00
2023-05-03T21:29:02.250Z,100.00
2023-05-03T21:31:28.912Z,100.00
2023-05-03T21:33:55.435Z,100.00
2023-05-03T21:36:22.058Z,100.00
2023-05-03T21:38:48.977Z,100.00
2023-05-03T21:41:15.258Z,100.00
2023-05-03T21:43:41.804Z,100.00
2023-05-03T21:46:08.280Z,100.00
2023-05-03T21:48:34.801Z,100.00
2023-05-03T21:51:01.673Z,100.00
2023-05-03T21:53:28.275Z,100.00
2023-05-03T21:55:54.759Z,100.00
2023-05-03T21:58:21.378Z,100.00
2023-05-03T22:00:47.829Z,100.00
2023-05-03T22:03:14.473Z,100.00
2023-05-03T22:05:41.035Z,100.00
2023-05-03T22:08:07.638Z,100.00
2023-05-03T22:10:34.083Z,100.00
2023-05-03T22:13:00.695Z,100.00
2023-05-03T22:15:27.342Z,100.00
2023-05-03T22:17:53.860Z,100.00
2023-05-03T22:20:20.318Z,100.00
2023-05-03T22:22:46.989Z,100.00
2023-05-03T22:25:13.736Z,100.00
2023-05-03T22:27:40.256Z,100.00
2023-05-03T22:30:06.888Z,100.00
2023-05-03T22:32:33.281Z,100.00
2023-05-03T22:34:59.804Z,100.00
2023-05-03T22:37:28.573Z,100.00
2023-05-03T22:39:53.348Z,100.00
2023-05-03T22:42:19.880Z,100.00
2023-05-03T22:44:49.293Z,100.00
2023-05-03T22:47:17.693Z,100.00
2023-05-03T22:49:48.998Z,100.00
2023-05-03T22:52:13.687Z,100.00
2023-05-03T22:54:40.248Z,100.00
2023-05-03T22:57:09.858Z,100.00
2023-05-03T22:59:38.192Z,100.00
2023-05-03T23:02:03.430Z,100.00
2023-05-03T23:04:29.903Z,99.26
2023-05-03T23:06:56.476Z,98.62
2023-05-03T23:09:23.083Z,98.77
2023-05-03T23:11:49.670Z,98.38
2023-05-03T23:14:16.133Z,97.34
2023-05-03T23:16:42.884Z,97.25
2023-05-03T23:19:09.750Z,97.37
2023-05-03T23:21:36.198Z,97.32
2023-05-03T23:24:06.859Z,97.23
2023-05-03T23:26:33.827Z,96.47
2023-05-03T23:29:00.415Z,95.57
2023-05-03T23:31:31.599Z,94.93
2023-05-03T23:33:59.228Z,95.20
2023-05-03T23:36:25.274Z,95.87
2023-05-03T23:38:53.296Z,96.62
2023-05-03T23:41:26.522Z,97.05
2023-05-03T23:43:53.214Z,97.51
2023-05-03T23:46:20.098Z,98.15
2023-05-03T23:48:48.544Z,98.72
2023-05-03T23:51:17.638Z,99.02
2023-05-03T23:53:46.576Z,99.22
2023-05-03T23:56:13.256Z,99.37
2023-05-03T23:58:37.994Z,99.64
